Time;durP1;ratioP1;P1;durP2;ratioP2;P2;SDS_P1;SDS_P2;PMS_P1;PMS_P2;Temp;Humidity;BMP_temperature;BMP_pressure;BME280_temperature;BME280_humidity;BME280_pressure;Samples;Min_cycle;Max_cycle;Signal;HPM_P1;HPM_P2
2022/06/14 00:03:05;;;;;;;5.43;3.70;;;;;;;13.06;100.00;98960.28;4485351;32;20110;-74
2022/06/14 00:05:39;;;;;;;5.35;3.42;;;;;;;12.99;100.00;98953.97;4485418;31;20093;-74
2022/06/14 00:08:07;;;;;;;7.85;4.40;;;;;;;12.96;100.00;98960.34;4485171;31;20093;-74
2022/06/14 00:10:35;;;;;;;6.95;3.83;;;;;;;12.93;100.00;98958.00;4485412;31;20123;-74
2022/06/14 00:13:02;;;;;;;5.03;3.67;;;;;;;12.88;100.00;98964.69;4485260;31;20112;-74
2022/06/14 00:15:30;;;;;;;5.80;3.42;;;;;;;12.91;100.00;98975.75;4485049;32;20100;-74
2022/06/14 00:17:58;;;;;;;4.60;3.30;;;;;;;12.82;100.00;98979.22;4484998;31;20084;-74
2022/06/14 00:20:25;;;;;;;5.55;4.12;;;;;;;12.83;100.00;98986.16;4485350;31;20119;-74
2022/06/14 00:22:53;;;;;;;6.20;3.87;;;;;;;12.79;100.00;98974.25;4485195;32;20172;-75
2022/06/14 00:25:33;;;;;;;5.85;3.75;;;;;;;12.73;100.00;98978.34;4485222;32;20150;-74
2022/06/14 00:28:01;;;;;;;7.62;3.90;;;;;;;12.67;100.00;98978.06;4485378;31;20122;-74
2022/06/14 00:30:29;;;;;;;8.80;4.22;;;;;;;12.55;100.00;98980.91;4485174;32;20609;-74
2022/06/14 00:32:57;;;;;;;5.72;4.22;;;;;;;12.49;100.00;98980.63;4485031;32;20108;-74
2022/06/14 00:35:25;;;;;;;4.97;4.15;;;;;;;12.36;100.00;98983.59;4485178;32;20160;-74
2022/06/14 00:37:52;;;;;;;7.28;4.70;;;;;;;12.41;100.00;98981.34;4485374;31;20085;-74
2022/06/14 00:40:25;;;;;;;6.45;3.95;;;;;;;12.43;100.00;98982.88;4484010;31;20123;-74
2022/06/14 00:42:53;;;;;;;5.70;3.92;;;;;;;12.47;100.00;98990.47;4485174;32;20080;-74
2022/06/14 00:45:20;;;;;;;7.60;4.30;;;;;;;12.43;100.00;98995.19;4484616;31;20114;-74
2022/06/14 00:48:21;;;;;;;8.52;4.90;;;;;;;12.45;100.00;98997.69;4484947;31;20084;-74
2022/06/14 00:51:14;;;;;;;8.52;4.50;;;;;;;12.47;100.00;99009.69;4483970;32;20544;-74
2022/06/14 00:53:52;;;;;;;9.40;4.43;;;;;;;12.38;100.00;99010.53;4477246;32;20084;-74
2022/06/14 00:56:28;;;;;;;8.13;4.20;;;;;;;12.46;100.00;99004.56;4483831;32;20135;-74
2022/06/14 00:59:07;;;;;;;6.50;3.58;;;;;;;12.42;100.00;99006.66;4484935;31;20080;-75
2022/06/14 01:01:38;;;;;;;5.40;3.28;;;;;;;12.50;100.00;99013.81;4483859;32;20537;-74
2022/06/14 01:04:25;;;;;;;6.93;4.60;;;;;;;12.42;100.00;99006.66;4483716;32;20440;-75
2022/06/14 01:06:58;;;;;;;6.70;4.07;;;;;;;12.41;100.00;99005.84;4483609;32;20093;-74
2022/06/14 01:09:32;;;;;;;8.57;4.67;;;;;;;12.38;100.00;99006.12;4484908;31;20098;-74
2022/06/14 01:12:03;;;;;;;5.75;4.05;;;;;;;12.32;100.00;99011.09;4483813;32;20120;-75
2022/06/14 01:14:44;;;;;;;5.62;4.32;;;;;;;12.30;100.00;99013.06;4483370;32;20096;-75
2022/06/14 01:17:14;;;;;;;8.15;4.05;;;;;;;12.25;100.00;99021.38;4483336;32;20450;-74
2022/06/14 01:19:41;;;;;;;6.85;4.22;;;;;;;12.28;100.00;99028.97;4484559;31;20155;-74
2022/06/14 01:22:08;;;;;;;7.75;4.07;;;;;;;12.20;100.00;99029.66;4483472;32;20161;-74
2022/06/14 01:24:39;;;;;;;7.40;4.12;;;;;;;12.23;100.00;99024.13;4484701;31;20127;-75
2022/06/14 01:27:10;;;;;;;6.57;4.72;;;;;;;12.22;100.00;99032.97;4484686;31;20080;-75
2022/06/14 01:29:41;;;;;;;9.55;4.10;;;;;;;12.24;100.00;99024.94;4483779;32;20089;-74
2022/06/14 01:32:10;;;;;;;7.53;4.20;;;;;;;12.26;100.00;99025.63;4473351;32;20096;-74
2022/06/14 01:34:43;;;;;;;8.75;4.43;;;;;;;12.35;100.00;99031.84;4467577;32;20116;-74
2022/06/14 01:37:10;;;;;;;10.75;4.70;;;;;;;12.31;100.00;99041.81;4467628;32;20076;-75
2022/06/14 01:39:37;;;;;;;7.07;4.22;;;;;;;12.32;100.00;99051.34;4467607;32;20089;-74
2022/06/14 01:42:15;;;;;;;7.07;4.28;;;;;;;12.29;100.00;99058.69;4468842;32;20097;-74
2022/06/14 01:44:49;;;;;;;6.68;4.35;;;;;;;12.33;100.00;99066.13;4468373;32;20126;-74
2022/06/14 01:47:25;;;;;;;8.00;4.37;;;;;;;12.23;100.00;99060.91;4468413;32;20102;-74
2022/06/14 01:52:56;;;;;;;6.37;4.57;;;;;;;12.09;100.00;99048.19;4470678;32;20092;-74
2022/06/14 01:55:51;;;;;;;8.68;4.55;;;;;;;11.99;100.00;99052.62;4469298;32;20100;-74
2022/06/14 01:58:23;;;;;;;6.55;4.10;;;;;;;11.94;100.00;99054.84;4470977;32;20089;-74
2022/06/14 02:01:13;;;;;;;8.40;4.22;;;;;;;11.86;100.00;99053.69;4469183;32;20092;-74
2022/06/14 02:06:50;;;;;;;9.32;4.07;;;;;;;11.95;100.00;99072.25;4452553;32;20134;-74
2022/06/14 02:09:42;;;;;;;5.25;4.03;;;;;;;11.99;100.00;99060.50;4452670;32;20080;-74
2022/06/14 02:12:14;;;;;;;9.27;4.75;;;;;;;11.84;100.00;99060.91;4452387;32;20073;-74
2022/06/14 02:14:56;;;;;;;8.57;4.10;;;;;;;11.83;100.00;99061.84;4452260;32;20109;-74
2022/06/14 02:17:29;;;;;;;8.57;4.30;;;;;;;11.81;100.00;99058.53;4439411;32;20131;-74
2022/06/14 02:20:01;;;;;;;8.05;5.57;;;;;;;11.82;100.00;99048.87;4439730;32;20551;-74
2022/06/14 02:22:38;;;;;;;6.95;4.62;;;;;;;11.79;100.00;99055.22;4439688;32;20451;-74
2022/06/14 02:25:14;;;;;;;8.23;4.47;;;;;;;11.76;100.00;99052.03;4439744;32;20097;-74
2022/06/14 02:27:59;;;;;;;6.60;4.37;;;;;;;11.77;100.00;99057.16;4452288;32;20109;-74
2022/06/14 02:30:30;;;;;;;7.68;4.32;;;;;;;11.76;100.00;99068.63;4439582;32;20120;-74
2022/06/14 02:33:35;;;;;;;8.13;3.92;;;;;;;11.76;100.00;99066.00;4439334;32;20096;-74
2022/06/14 02:36:04;;;;;;;;;;;;;;;11.77;100.00;99066.84;4439662;32;20171;-74
2022/06/14 02:38:39;;;;;;;7.75;4.25;;;;;;;11.79;100.00;99073.59;4452419;32;19992;-74
2022/06/14 02:41:16;;;;;;;5.00;4.15;;;;;;;11.79;100.00;99072.75;4466435;32;20092;-74
2022/06/14 02:44:14;;;;;;;6.45;4.12;;;;;;;11.84;100.00;99071.41;4485946;31;20103;-74
2022/06/14 02:46:51;;;;;;;6.55;4.12;;;;;;;11.75;100.00;99076.63;4479014;32;20127;-74
2022/06/14 02:49:39;;;;;;;6.32;4.22;;;;;;;11.71;100.00;99081.34;4484949;32;20100;-74
2022/06/14 02:52:29;;;;;;;6.55;3.92;;;;;;;11.71;100.00;99081.34;4484651;32;20125;-74
2022/06/14 02:55:02;;;;;;;9.02;4.50;;;;;;;11.78;100.00;99092.09;4486012;31;20089;-74
2022/06/14 02:57:50;;;;;;;17.65;4.85;;;;;;;11.72;100.00;99088.25;4485850;32;20081;-74
2022/06/14 03:00:21;;;;;;;10.63;4.18;;;;;;;11.75;100.00;99093.22;4484886;32;20122;-74
2022/06/14 03:02:58;;;;;;;7.05;5.35;;;;;;;11.69;100.00;99088.53;4484236;32;20116;-74
2022/06/14 03:05:32;;;;;;;8.75;4.40;;;;;;;11.67;100.00;99088.66;4486006;31;20102;-74
2022/06/14 03:08:05;;;;;;;7.00;4.80;;;;;;;11.67;100.00;99082.56;4484565;32;20097;-74
2022/06/14 03:10:40;;;;;;;8.23;4.93;;;;;;;11.69;100.00;99086.72;4484604;32;20096;-74
2022/06/14 03:13:13;;;;;;;11.43;6.12;;;;;;;11.75;100.00;99087.13;4484632;32;20088;-74
2022/06/14 03:15:43;;;;;;;16.52;5.95;;;;;;;11.84;100.00;99091.53;4484341;32;20083;-74
2022/06/14 03:18:30;;;;;;;5.72;4.78;;;;;;;11.87;100.00;99089.50;4485577;32;20367;-74
2022/06/14 03:21:21;;;;;;;12.60;4.68;;;;;;;12.14;100.00;99095.91;4485702;31;20100;-74
2022/06/14 03:24:20;;;;;;;7.47;4.50;;;;;;;12.17;100.00;99095.63;4484905;32;20115;-74
2022/06/14 03:26:59;;;;;;;9.13;4.53;;;;;;;12.32;100.00;99103.06;4420977;32;20093;-74
2022/06/14 03:29:45;;;;;;;6.85;4.43;;;;;;;12.40;100.00;99103.19;4421120;32;20180;-74
2022/06/14 03:32:16;;;;;;;6.53;4.70;;;;;;;12.61;100.00;99100.38;4421085;32;20129;-74
2022/06/14 03:34:51;;;;;;;8.57;4.37;;;;;;;12.78;100.00;99106.72;4408436;32;20150;-74
2022/06/14 03:37:19;;;;;;;6.80;4.07;;;;;;;12.74;100.00;99100.06;4408440;32;20093;-74
2022/06/14 03:40:01;;;;;;;7.15;4.40;;;;;;;12.77;100.00;99105.03;4408548;32;20453;-74
2022/06/14 03:42:28;;;;;;;8.70;4.50;;;;;;;12.82;100.00;99094.91;4408220;32;20101;-74
2022/06/14 03:44:57;;;;;;;5.12;4.18;;;;;;;12.90;100.00;99110.81;4420751;32;20089;-74
2022/06/14 03:47:27;;;;;;;7.50;4.62;;;;;;;12.91;100.00;99109.84;4421061;32;20086;-74
2022/06/14 03:49:57;;;;;;;5.03;3.40;;;;;;;12.95;100.00;99121.72;4421366;32;20130;-74
2022/06/14 03:52:43;;;;;;;6.90;3.85;;;;;;;12.95;100.00;99119.09;4408403;32;20106;-74
2022/06/14 03:55:25;;;;;;;4.90;4.20;;;;;;;12.95;100.00;99121.72;4421194;32;20085;-74
2022/06/14 03:58:19;;;;;;;7.18;4.25;;;;;;;12.94;100.00;99122.72;4421134;32;20143;-74
2022/06/14 04:00:54;;;;;;;5.87;4.55;;;;;;;13.07;100.00;99119.75;4421305;32;20121;-74
2022/06/14 04:03:52;;;;;;;7.35;4.15;;;;;;;13.03;100.00;99120.19;4428126;32;20624;-75
2022/06/14 04:06:50;;;;;;;6.50;4.25;;;;;;;13.07;100.00;99121.56;4484750;31;20130;-74
2022/06/14 04:09:53;;;;;;;7.87;4.82;;;;;;;13.19;100.00;99122.22;4483162;32;20087;-74
2022/06/14 04:12:28;;;;;;;4.97;3.85;;;;;;;13.27;99.99;99133.66;4485063;31;20092;-74
2022/06/14 04:15:11;;;;;;;6.85;3.90;;;;;;;13.41;99.70;99126.28;4483028;31;20207;-76
2022/06/14 04:17:45;;;;;;;9.98;4.60;;;;;;;13.49;99.39;99129.03;4483055;32;20111;-74
2022/06/14 04:20:17;;;;;;;7.50;4.20;;;;;;;13.73;98.46;99138.16;4484567;31;20092;-74
2022/06/14 04:22:44;;;;;;;4.60;3.83;;;;;;;13.73;98.58;99136.38;4481747;32;20123;-74
2022/06/14 04:25:36;;;;;;;7.97;4.50;;;;;;;13.84;97.78;99132.69;4483595;31;20100;-74
2022/06/14 04:28:31;;;;;;;4.78;3.67;;;;;;;13.94;96.98;99141.31;4476901;32;20131;-74
2022/06/14 04:31:06;;;;;;;5.50;4.03;;;;;;;13.94;95.62;99143.12;4483537;32;20089;-74
2022/06/14 04:33:39;;;;;;;6.18;2.62;;;;;;;14.09;94.77;99151.34;4483678;32;20176;-74
2022/06/14 04:36:10;;;;;;;7.93;4.00;;;;;;;13.92;94.80;99153.00;4483240;32;20148;-74
2022/06/14 04:38:44;;;;;;;7.28;3.47;;;;;;;13.90;95.53;99150.53;4483025;32;20088;-74
2022/06/14 04:41:16;;;;;;;7.70;4.07;;;;;;;13.68;96.55;99158.84;4484265;31;20230;-74
2022/06/14 04:43:48;;;;;;;4.55;3.70;;;;;;;13.90;95.37;99171.59;4482917;31;20108;-74
2022/06/14 04:46:31;;;;;;;8.50;3.87;;;;;;;14.09;94.91;99173.25;4483095;31;20076;-74
2022/06/14 04:49:06;;;;;;;6.05;3.40;;;;;;;14.17;93.57;99172.50;4483434;32;20088;-74
2022/06/14 04:51:47;;;;;;;7.35;3.78;;;;;;;14.52;93.20;99181.41;4483663;32;20151;-74
2022/06/14 04:54:39;;;;;;;6.10;3.95;;;;;;;14.63;91.48;99189.09;4483570;32;20104;-74
2022/06/14 04:57:12;;;;;;;7.97;3.67;;;;;;;14.86;89.80;99183.31;4482108;32;20100;-74
2022/06/14 04:59:53;;;;;;;6.22;3.40;;;;;;;15.08;88.04;99182.81;4481773;32;20091;-74
2022/06/14 05:02:25;;;;;;;6.43;3.37;;;;;;;15.34;87.07;99194.34;4483092;32;20140;-74
2022/06/14 05:04:56;;;;;;;7.62;3.70;;;;;;;15.38;87.06;99193.87;4479777;32;20131;-74
2022/06/14 05:07:41;;;;;;;6.62;3.40;;;;;;;15.34;86.04;99197.78;4479092;32;20127;-74
2022/06/14 05:10:13;;;;;;;7.10;3.90;;;;;;;15.61;86.83;99190.66;4479277;32;20107;-75
2022/06/14 05:13:11;;;;;;;5.32;3.80;;;;;;;15.68;86.19;99199.59;4481093;32;20083;-75
2022/06/14 05:15:44;;;;;;;6.18;3.37;;;;;;;15.40;85.70;99199.81;4475689;32;20127;-75
2022/06/14 05:18:15;;;;;;;4.37;3.30;;;;;;;15.28;87.67;99208.97;4482119;32;20113;-75
2022/06/14 05:20:57;;;;;;;8.70;4.07;;;;;;;15.22;88.58;99209.59;4478935;31;20211;-75
2022/06/14 05:23:29;;;;;;;6.70;3.70;;;;;;;15.15;88.32;99216.47;4477385;32;20115;-75
2022/06/14 05:26:30;;;;;;;5.20;3.43;;;;;;;14.65;91.79;99208.22;4479025;32;20135;-75
2022/06/14 05:29:22;;;;;;;4.32;3.67;;;;;;;14.92;91.41;99211.72;4484859;31;20477;-75
2022/06/14 05:31:59;;;;;;;6.22;3.87;;;;;;;15.21;90.42;99218.50;4467277;32;20111;-75
2022/06/14 05:34:42;;;;;;;5.90;3.58;;;;;;;15.45;87.78;99215.16;4481104;32;20160;-75
2022/06/14 05:37:12;;;;;;;6.75;4.10;;;;;;;15.54;87.43;99216.03;4484887;31;20135;-75
2022/06/14 05:39:47;;;;;;;6.03;3.72;;;;;;;15.66;86.58;99206.84;4488569;31;20080;-76
2022/06/14 05:42:20;;;;;;;5.60;3.40;;;;;;;15.65;87.92;99210.47;4481761;32;20450;-75
2022/06/14 05:44:51;;;;;;;4.20;3.17;;;;;;;15.93;86.20;99212.94;4478181;31;20080;-75
2022/06/14 05:47:32;;;;;;;4.93;3.20;;;;;;;16.00;83.25;99213.91;4482205;32;20123;-76
2022/06/14 05:50:04;;;;;;;4.65;3.03;;;;;;;16.08;83.76;99210.50;4483677;31;20122;-76
2022/06/14 05:52:35;;;;;;;5.03;2.83;;;;;;;16.35;83.13;99206.75;4482438;31;20123;-76
2022/06/14 05:55:10;;;;;;;6.05;3.15;;;;;;;16.26;80.26;99219.12;4477777;32;20088;-76
2022/06/14 05:57:38;;;;;;;6.80;2.80;;;;;;;16.49;80.77;99221.94;4478417;31;20153;-75
2022/06/14 06:00:10;;;;;;;8.10;2.95;;;;;;;16.64;80.60;99221.31;4486455;31;20079;-76
2022/06/14 06:02:46;;;;;;;6.55;3.10;;;;;;;16.97;79.42;99224.78;4481322;31;20096;-76
2022/06/14 06:05:25;;;;;;;5.45;2.90;;;;;;;17.17;79.48;99229.72;4471345;32;20479;-75
2022/06/14 06:07:56;;;;;;;4.30;2.92;;;;;;;16.90;77.76;99230.91;4475887;31;20108;-75
2022/06/14 06:10:27;;;;;;;5.53;2.80;;;;;;;16.75;79.13;99228.06;4482178;32;20092;-75
2022/06/14 06:13:02;;;;;;;6.22;3.28;;;;;;;16.80;78.92;99231.84;4481009;32;20151;-75
2022/06/14 06:15:40;;;;;;;4.40;2.78;;;;;;;16.92;78.48;99228.94;4475598;32;20095;-76
2022/06/14 06:18:33;;;;;;;5.97;3.08;;;;;;;16.77;79.50;99224.25;4471526;32;20105;-74
2022/06/14 06:21:17;;;;;;;5.87;2.62;;;;;;;16.75;78.55;99234.19;4414272;32;20526;-75
2022/06/14 06:23:49;;;;;;;6.30;3.25;;;;;;;16.89;79.22;99240.66;4406723;32;20101;-75
2022/06/14 06:26:18;;;;;;;6.90;3.12;;;;;;;16.83;79.05;99236.00;4404772;32;20136;-75
2022/06/14 06:28:51;;;;;;;5.15;3.20;;;;;;;16.90;78.19;99236.22;4415159;32;20152;-75
2022/06/14 06:31:30;;;;;;;7.95;2.95;;;;;;;16.92;79.44;99239.50;4420430;32;20171;-75
2022/06/14 06:34:01;;;;;;;8.15;3.45;;;;;;;17.01;78.03;99238.50;4402714;32;20538;-77
2022/06/14 06:36:59;;;;;;;3.75;2.72;;;;;;;17.10;77.12;99242.78;4394522;32;20105;-75
2022/06/14 06:39:26;;;;;;;5.12;3.00;;;;;;;17.14;76.95;99246.78;4411884;32;20110;-75
2022/06/14 06:41:57;;;;;;;6.32;2.97;;;;;;;17.24;75.71;99235.97;4417134;32;20114;-75
2022/06/14 06:44:26;;;;;;;8.35;3.53;;;;;;;17.16;75.91;99242.12;4408331;32;20101;-75
2022/06/14 06:47:09;;;;;;;8.48;2.97;;;;;;;17.22;75.86;99250.41;4420416;32;20289;-76
2022/06/14 06:49:49;;;;;;;5.35;3.35;;;;;;;17.44;75.56;99254.16;4401614;32;20098;-75
2022/06/14 06:52:39;;;;;;;3.95;2.60;;;;;;;17.45;75.30;99253.97;4410116;32;20129;-75
2022/06/14 06:55:11;;;;;;;5.28;2.90;;;;;;;17.40;74.07;99251.03;4417461;32;20456;-74
2022/06/14 06:57:40;;;;;;;8.85;3.03;;;;;;;17.47;74.62;99259.94;4429084;32;20124;-74
2022/06/14 07:00:09;;;;;;;9.00;2.83;;;;;;;17.54;75.36;99249.50;4476089;32;20105;-76
2022/06/14 07:02:41;;;;;;;6.87;3.12;;;;;;;17.63;73.26;99252.94;4470826;32;20168;-74
2022/06/14 07:05:14;;;;;;;6.00;2.67;;;;;;;17.63;72.43;99253.75;4476981;32;20118;-75
2022/06/14 07:07:47;;;;;;;7.35;2.97;;;;;;;17.77;72.51;99251.41;4475701;32;20183;-75
2022/06/14 07:10:35;;;;;;;5.40;3.13;;;;;;;17.95;72.88;99252.00;4474704;32;20096;-75
2022/06/14 07:13:28;;;;;;;7.07;3.10;;;;;;;18.07;72.57;99260.41;4475570;31;20215;-75
2022/06/14 07:16:05;;;;;;;3.22;2.70;;;;;;;18.20;71.60;99255.38;4474679;32;20139;-75
2022/06/14 07:18:40;;;;;;;4.95;3.03;;;;;;;18.12;67.05;99262.53;4488651;31;20079;-74
2022/06/14 07:21:15;;;;;;;7.28;2.78;;;;;;;18.26;68.82;99259.97;4477584;31;20123;-74
2022/06/14 07:23:49;;;;;;;10.80;2.45;;;;;;;18.38;68.46;99259.56;4478847;31;20112;-75
2022/06/14 07:26:40;;;;;;;9.90;2.58;;;;;;;18.43;70.11;99258.03;4477576;32;20100;-74
2022/06/14 07:29:14;;;;;;;7.78;2.85;;;;;;;18.41;65.56;99267.16;4479948;32;20927;-75
2022/06/14 07:31:50;;;;;;;4.65;2.75;;;;;;;18.48;66.94;99268.13;4481605;31;20458;-74
2022/06/14 07:34:17;;;;;;;3.95;2.40;;;;;;;18.66;67.51;99264.38;4483445;31;20162;-74
2022/06/14 07:36:51;;;;;;;4.70;2.22;;;;;;;18.62;64.77;99264.72;4478179;32;20109;-74
2022/06/14 07:39:49;;;;;;;6.62;2.67;;;;;;;18.77;66.75;99267.44;4478257;32;20096;-74
2022/06/14 07:42:23;;;;;;;5.05;2.05;;;;;;;18.80;67.24;99266.22;4480028;32;20391;-74
2022/06/14 07:45:13;;;;;;;4.95;2.50;;;;;;;18.79;63.25;99267.25;4474232;31;20108;-74
2022/06/14 07:47:53;;;;;;;7.00;2.37;;;;;;;18.97;64.10;99267.78;4477173;32;20119;-74
2022/06/14 07:50:24;;;;;;;7.62;2.33;;;;;;;19.16;62.18;99270.94;4476337;32;20096;-74
2022/06/14 07:53:01;;;;;;;5.65;2.70;;;;;;;19.43;64.11;99266.84;4476691;32;20162;-74
2022/06/14 07:55:37;;;;;;;6.80;2.17;;;;;;;19.45;62.24;99267.50;4467890;32;20782;-74
2022/06/14 07:58:12;;;;;;;7.70;2.12;;;;;;;19.67;59.80;99268.41;4468419;32;20096;-75
2022/06/14 08:03:36;;;;;;;5.15;2.28;;;;;;;19.94;58.31;99267.97;4482927;32;20100;-74
2022/06/14 08:06:08;;;;;;;6.55;2.10;;;;;;;20.07;58.49;99273.44;4483780;31;20129;-73
2022/06/14 08:08:37;;;;;;;10.23;2.37;;;;;;;20.07;59.56;99268.13;4484128;32;20096;-75
2022/06/14 08:11:08;;;;;;;6.70;2.28;;;;;;;20.02;58.45;99263.38;4482461;32;20092;-75
2022/06/14 08:13:44;;;;;;;5.72;1.98;;;;;;;19.92;58.06;99265.50;4482351;32;20115;-74
2022/06/14 08:16:12;;;;;;;4.78;2.03;;;;;;;19.98;56.91;99258.62;4480469;32;20903;-74
2022/06/14 08:19:04;;;;;;;5.97;1.77;;;;;;;19.93;51.36;99267.16;4481301;32;20146;-74
2022/06/14 08:22:08;;;;;;;7.45;2.30;;;;;;;19.83;48.30;99259.47;4481910;31;20883;-74
2022/06/14 08:24:41;;;;;;;13.38;2.25;;;;;;;19.70;53.94;99264.59;4471943;32;20170;-74
2022/06/14 08:27:20;;;;;;;2.70;1.92;;;;;;;19.83;54.83;99266.59;4478967;32;20108;-75
2022/06/14 08:29:51;;;;;;;3.58;2.33;;;;;;;19.95;54.68;99265.12;4475219;31;20092;-75
2022/06/14 08:32:23;;;;;;;5.30;2.22;;;;;;;20.02;54.55;99260.72;4483108;32;20201;-74
2022/06/14 08:35:06;;;;;;;4.00;1.83;;;;;;;20.39;55.78;99264.22;4483070;32;20440;-74
2022/06/14 08:37:45;;;;;;;5.30;1.58;;;;;;;20.28;45.46;99256.72;4481755;31;20116;-74
2022/06/14 08:40:34;;;;;;;3.58;1.65;;;;;;;20.42;45.52;99259.50;4485595;31;20151;-74
2022/06/14 08:43:09;;;;;;;4.93;1.85;;;;;;;20.45;45.65;99256.47;4482139;31;20092;-74
2022/06/14 08:45:46;;;;;;;3.17;1.52;;;;;;;20.48;47.71;99258.75;4481995;32;20614;-75
2022/06/14 08:48:50;;;;;;;5.72;1.67;;;;;;;20.63;48.26;99248.88;4482597;32;20131;-75
2022/06/14 08:51:32;;;;;;;5.15;1.70;;;;;;;20.57;47.42;99254.94;4481264;31;20457;-73
2022/06/14 08:54:27;;;;;;;5.30;1.83;;;;;;;20.69;46.39;99258.78;4481510;32;20084;-73
2022/06/14 08:57:23;;;;;;;2.10;1.45;;;;;;;20.68;48.54;99251.00;4481931;32;20430;-73
2022/06/14 08:59:59;;;;;;;5.40;1.80;;;;;;;21.04;47.22;99258.88;4482846;32;20101;-72
2022/06/14 09:02:51;;;;;;;2.85;1.67;;;;;;;20.96;44.36;99264.34;4483300;32;20516;-72
2022/06/14 09:05:31;;;;;;;6.30;1.42;;;;;;;20.73;45.53;99262.72;4478086;32;20555;-72
2022/06/14 09:08:19;;;;;;;4.62;2.15;;;;;;;20.85;46.14;99267.56;4486218;31;20157;-72
2022/06/14 09:11:10;;;;;;;9.00;1.85;;;;;;;21.09;46.59;99259.13;4481424;31;20141;-73
2022/06/14 09:14:12;;;;;;;10.55;2.00;;;;;;;21.54;49.10;99263.34;4482310;31;20109;-73
2022/06/14 09:16:59;;;;;;;2.78;1.85;;;;;;;21.22;47.83;99262.91;4467063;31;558216;-73
2022/06/14 09:20:02;;;;;;;8.68;1.80;;;;;;;20.81;48.64;99271.59;4482939;32;20119;-73
2022/06/14 09:22:43;;;;;;;5.65;1.80;;;;;;;21.29;47.65;99258.47;4483751;32;20100;-73
2022/06/14 09:25:42;;;;;;;4.28;1.70;;;;;;;21.60;46.15;99251.91;4483016;32;20108;-74
2022/06/14 09:28:17;;;;;;;5.07;1.75;;;;;;;21.41;47.21;99262.22;4480950;32;20080;-73
2022/06/14 09:31:03;;;;;;;4.95;1.83;;;;;;;21.66;46.78;99255.63;4480657;32;20609;-73
2022/06/14 09:33:57;;;;;;;8.68;2.05;;;;;;;21.85;43.39;99251.38;4484344;31;20133;-73
2022/06/14 09:36:55;;;;;;;3.08;1.40;;;;;;;21.76;45.59;99251.56;4483568;32;20092;-73
2022/06/14 09:39:40;;;;;;;2.62;1.50;;;;;;;21.86;44.02;99255.72;4426284;32;20097;-73
2022/06/14 09:42:14;;;;;;;3.83;1.70;;;;;;;21.63;44.06;99254.16;4424301;32;20102;-73
2022/06/14 09:45:06;;;;;;;3.87;1.50;;;;;;;21.49;44.23;99255.09;4427974;32;20125;-73
2022/06/14 09:47:49;;;;;;;4.47;1.52;;;;;;;21.60;41.56;99241.22;4432596;32;20163;-73
2022/06/14 09:50:42;;;;;;;3.45;1.65;;;;;;;22.21;42.33;99247.63;4429129;32;20173;-72
2022/06/14 09:53:25;;;;;;;3.85;1.83;;;;;;;21.89;42.97;99253.50;4434579;32;20443;-72
2022/06/14 09:55:54;;;;;;;3.28;1.73;;;;;;;21.53;45.44;99253.69;4435251;32;20159;-72
2022/06/14 09:58:44;;;;;;;6.75;1.80;;;;;;;21.33;45.50;99254.37;4434366;32;20125;-72
2022/06/14 10:01:20;;;;;;;4.70;1.12;;;;;;;21.39;45.66;99247.44;4420541;32;20108;-72
2022/06/14 10:04:26;;;;;;;5.70;1.60;;;;;;;22.09;39.51;99248.22;4418451;32;20160;-72
2022/06/14 10:07:30;;;;;;;1.95;1.27;;;;;;;21.95;36.67;99238.50;4388653;32;20105;-71
2022/06/14 10:10:13;;;;;;;5.82;1.65;;;;;;;21.58;38.48;99243.28;4398224;32;20149;-72
2022/06/14 10:12:53;;;;;;;4.50;1.50;;;;;;;21.44;40.49;99240.50;4401370;32;20082;-73
2022/06/14 10:15:25;;;;;;;3.25;1.65;;;;;;;21.56;40.30;99246.16;4406575;32;20144;-72
2022/06/14 10:17:59;;;;;;;3.37;1.42;;;;;;;21.48;41.47;99248.09;4422773;32;20466;-75
2022/06/14 10:20:46;;;;;;;5.55;1.45;;;;;;;21.06;40.31;99243.53;4422536;32;20179;-74
2022/06/14 10:23:32;;;;;;;3.90;1.83;;;;;;;21.11;42.15;99234.16;4432539;32;20163;-75
2022/06/14 10:29:18;;;;;;;7.93;2.60;;;;;;;21.42;39.87;99241.72;4423210;32;20131;-78
2022/06/14 10:32:16;;;;;;;4.07;1.77;;;;;;;21.28;40.70;99238.16;4419725;32;20178;-76
2022/06/14 10:34:49;;;;;;;3.85;1.87;;;;;;;21.11;40.24;99234.97;4410693;32;20560;-74
2022/06/14 10:37:46;;;;;;;4.00;1.67;;;;;;;20.88;41.61;99230.69;4429719;32;20892;-73
2022/06/14 10:40:50;;;;;;;6.15;1.67;;;;;;;20.83;41.09;99238.44;4418944;32;20422;-73
2022/06/14 10:43:40;;;;;;;4.93;1.70;;;;;;;20.55;42.02;99225.88;4467215;32;20141;-74
2022/06/14 10:46:18;;;;;;;3.17;1.62;;;;;;;21.50;44.29;99222.94;4483831;31;20093;-74
2022/06/14 10:49:23;;;;;;;4.22;1.80;;;;;;;21.41;42.12;99219.56;4477137;32;20116;-74
2022/06/14 10:51:53;;;;;;;3.65;1.73;;;;;;;21.43;43.18;99228.19;4482088;31;20136;-72
2022/06/14 10:54:21;;;;;;;3.65;1.60;;;;;;;22.29;39.90;99218.09;4480732;31;20092;-74
2022/06/14 10:57:38;;;;;;;4.93;2.20;;;;;;;22.68;41.02;99216.53;4474848;31;20085;-74
2022/06/14 11:00:18;;;;;;;3.97;2.00;;;;;;;22.02;40.56;99226.03;4433380;32;20181;-75
2022/06/14 11:03:07;;;;;;;4.15;1.70;;;;;;;22.11;42.63;99216.81;4417324;32;20124;-73
2022/06/14 11:05:58;;;;;;;2.83;1.75;;;;;;;21.27;42.16;99221.34;4430757;32;20446;-75
2022/06/14 11:09:03;;;;;;;4.53;1.90;;;;;;;21.20;42.32;99219.66;4430154;32;20105;-76
2022/06/14 11:11:49;;;;;;;6.03;1.98;;;;;;;21.52;43.44;99217.41;4436569;32;20106;-74
2022/06/14 11:14:34;;;;;;;3.50;1.70;;;;;;;22.00;41.88;99209.41;4430119;32;20128;-76
2022/06/14 11:17:06;;;;;;;6.18;1.85;;;;;;;22.83;41.30;99213.63;4431916;32;20387;-76
2022/06/14 11:19:42;;;;;;;5.75;1.65;;;;;;;23.15;40.53;99217.34;4415073;32;20159;-75
2022/06/14 11:22:34;;;;;;;4.30;1.92;;;;;;;23.23;38.44;99223.53;4429670;32;20101;-76
2022/06/14 11:25:02;;;;;;;4.45;1.70;;;;;;;23.35;38.47;99211.16;4417893;32;20162;-75
2022/06/14 11:27:32;;;;;;;3.17;1.90;;;;;;;23.58;40.05;99220.56;4433428;32;20139;-76
2022/06/14 11:30:13;;;;;;;4.10;1.52;;;;;;;22.62;40.45;99226.19;4433099;32;20106;-76
2022/06/14 11:32:49;;;;;;;9.73;2.03;;;;;;;22.12;41.11;99234.47;4440765;32;20924;-76
2022/06/14 11:35:31;;;;;;;6.75;1.48;;;;;;;21.80;41.17;99218.16;4440164;32;20126;-76
2022/06/14 11:38:41;;;;;;;5.53;1.73;;;;;;;21.45;41.18;99218.16;4482268;31;20452;-74
2022/06/14 11:41:10;;;;;;;7.95;1.87;;;;;;;21.40;41.33;99219.78;4489047;31;20081;-74
2022/06/14 11:44:05;;;;;;;4.00;1.87;;;;;;;21.86;41.68;99223.72;4482632;31;20112;-74
2022/06/14 11:46:41;;;;;;;2.28;1.50;;;;;;;22.26;39.90;99218.50;4489213;31;20118;-76
2022/06/14 11:49:15;;;;;;;4.40;1.70;;;;;;;22.87;38.29;99210.34;4472996;31;20168;-76
2022/06/14 11:52:20;;;;;;;4.18;1.62;;;;;;;23.34;40.25;99213.00;4489034;31;20110;-75
2022/06/14 11:55:13;;;;;;;6.20;2.03;;;;;;;23.29;39.65;99222.69;4490839;31;20096;-75
2022/06/14 11:58:08;;;;;;;3.97;2.05;;;;;;;23.02;40.01;99217.34;4488302;31;20104;-75
2022/06/14 12:01:15;;;;;;;2.42;1.48;;;;;;;22.69;40.84;99223.50;4482514;31;20100;-74
2022/06/14 12:04:01;;;;;;;5.05;1.65;;;;;;;22.69;39.59;99226.19;4482221;31;20110;-74
2022/06/14 12:07:07;;;;;;;3.75;1.92;;;;;;;22.79;41.18;99231.94;4488403;31;20152;-74
2022/06/14 12:09:34;;;;;;;4.25;1.90;;;;;;;22.53;39.23;99223.91;4441796;32;20503;-74
2022/06/14 12:12:15;;;;;;;4.12;1.67;;;;;;;22.31;41.71;99226.75;4441166;32;20130;-74
2022/06/14 12:14:56;;;;;;;2.90;1.48;;;;;;;22.33;41.34;99216.69;4427098;32;20097;-75
2022/06/14 12:17:26;;;;;;;5.03;1.80;;;;;;;22.43;40.89;99206.44;4426034;32;20131;-75
2022/06/14 12:20:06;;;;;;;3.47;2.20;;;;;;;23.03;40.46;99214.47;4434044;32;20613;-75
2022/06/14 12:22:42;;;;;;;1.90;1.50;;;;;;;23.45;38.66;99205.34;4434555;32;20650;-76
2022/06/14 12:28:25;;;;;;;4.12;1.77;;;;;;;23.77;37.03;99198.25;4440942;32;20161;-73
2022/06/14 12:30:58;;;;;;;4.37;1.30;;;;;;;23.60;38.21;99197.91;4440120;32;20139;-74
2022/06/14 12:33:40;;;;;;;4.53;1.52;;;;;;;24.02;35.06;99193.00;4439969;32;20139;-75
2022/06/14 12:36:36;;;;;;;2.22;1.48;;;;;;;24.07;35.48;99190.53;4425689;32;20105;-76
2022/06/14 12:39:31;;;;;;;1999.90;999.90;;;;;;;24.37;37.71;99192.56;4427818;32;20109;-75
2022/06/14 12:42:04;;;;;;;1999.90;999.90;;;;;;;23.83;37.06;99199.25;4423859;32;20120;-74
2022/06/14 12:44:51;;;;;;;1999.90;999.90;;;;;;;23.38;36.96;99200.03;4437757;32;20106;-75